createdAt,value
2023-02-27T00:00:47.378Z,1011
2023-02-27T00:01:48.544Z,1011
2023-02-27T00:02:49.737Z,1011
2023-02-27T00:03:50.904Z,1011
2023-02-27T00:04:51.734Z,1011
2023-02-27T00:05:52.878Z,1011
2023-02-27T00:06:54.294Z,1011
2023-02-27T00:07:55.710Z,1011
2023-02-27T00:08:57.014Z,1011
2023-02-27T00:09:58.465Z,1011
2023-02-27T00:10:59.877Z,1011
2023-02-27T00:12:01.299Z,1011
2023-02-27T00:13:02.714Z,1011
2023-02-27T00:14:03.855Z,1011
2023-02-27T00:15:05.083Z,1011
2023-02-27T00:16:06.617Z,1011
2023-02-27T00:17:07.900Z,1011
2023-02-27T00:18:09.038Z,1011
2023-02-27T00:19:10.452Z,1011
2023-02-27T00:20:11.630Z,1011
2023-02-27T00:21:13.041Z,1011
2023-02-27T00:22:14.181Z,1011
2023-02-27T00:23:15.076Z,1011
2023-02-27T00:24:16.218Z,1011.1
2023-02-27T00:25:17.383Z,1011.1
2023-02-27T00:26:18.524Z,1011.1
2023-02-27T00:27:19.940Z,1011.1
2023-02-27T00:28:21.358Z,1011.1
2023-02-27T00:29:22.495Z,1011.1
2023-02-27T00:30:23.667Z,1011.1
2023-02-27T00:31:25.450Z,1011.1
2023-02-27T00:32:27.734Z,1011.1
2023-02-27T00:33:29.109Z,1011.1
2023-02-27T00:34:30.524Z,1011.2
2023-02-27T00:35:31.939Z,1011.1
2023-02-27T00:36:33.085Z,1011.2
2023-02-27T00:37:34.215Z,1011.2
2023-02-27T00:38:35.392Z,1011.1
2023-02-27T00:39:36.493Z,1011.1
2023-02-27T00:40:37.113Z,1011.2
2023-02-27T00:41:38.530Z,1011.2
2023-02-27T00:42:39.940Z,1011.1
2023-02-27T00:43:41.081Z,1011.1
2023-02-27T00:44:42.502Z,1011.1
2023-02-27T00:45:43.472Z,1011.1
2023-02-27T00:46:44.612Z,1011.1
2023-02-27T00:47:46.040Z,1011.1
2023-02-27T00:48:47.457Z,1011.1
2023-02-27T00:49:48.869Z,1011.1
2023-02-27T00:50:50.009Z,1011.2
2023-02-27T00:51:51.428Z,1011.2
2023-02-27T00:52:52.568Z,1011.1
2023-02-27T00:53:53.702Z,1011.1
2023-02-27T00:54:55.119Z,1011.2
2023-02-27T00:55:56.532Z,1011.1
2023-02-27T00:56:57.678Z,1011.1
2023-02-27T00:57:59.093Z,1011.1
2023-02-27T00:59:00.510Z,1011.1
2023-02-27T01:00:01.928Z,1011.1
2023-02-27T01:01:03.600Z,1011.1
2023-02-27T01:02:04.933Z,1011.1
2023-02-27T01:03:06.075Z,1011.1
2023-02-27T01:04:07.213Z,1011.1
2023-02-27T01:05:08.063Z,1011.1
2023-02-27T01:06:08.965Z,1011
2023-02-27T01:07:10.387Z,1011
2023-02-27T01:08:11.296Z,1011
2023-02-27T01:09:12.434Z,1011
2023-02-27T01:10:13.620Z,1011
2023-02-27T01:11:15.054Z,1011
2023-02-27T01:12:16.459Z,1011
2023-02-27T01:13:17.901Z,1011
2023-02-27T01:14:19.038Z,1011
2023-02-27T01:15:20.465Z,1011
2023-02-27T01:16:21.966Z,1010.9
2023-02-27T01:17:23.428Z,1011
2023-02-27T01:18:24.558Z,1011
2023-02-27T01:19:25.704Z,1011
2023-02-27T01:20:27.118Z,1011
2023-02-27T01:21:28.723Z,1010.9
2023-02-27T01:22:30.275Z,1010.9
2023-02-27T01:23:31.695Z,1010.9
2023-02-27T01:24:32.834Z,1010.9
2023-02-27T01:25:34.026Z,1010.9
2023-02-27T01:26:34.883Z,1010.9
2023-02-27T01:27:36.300Z,1010.9
2023-02-27T01:28:37.163Z,1010.8
2023-02-27T01:29:38.580Z,1010.8
2023-02-27T01:30:40.074Z,1010.8
2023-02-27T01:31:41.576Z,1010.9
2023-02-27T01:32:42.605Z,1010.9
2023-02-27T01:33:43.966Z,1010.9
2023-02-27T01:34:45.385Z,1010.9
2023-02-27T01:35:46.801Z,1010.9
2023-02-27T01:36:47.936Z,1010.8
2023-02-27T01:37:49.349Z,1010.8
2023-02-27T01:38:50.769Z,1010.8
2023-02-27T01:39:52.129Z,1010.9
2023-02-27T01:40:53.548Z,1010.8
2023-02-27T01:41:54.405Z,1010.8
2023-02-27T01:42:55.836Z,1010.8
2023-02-27T01:43:57.251Z,1010.8
2023-02-27T01:44:58.736Z,1010.8
2023-02-27T01:46:00.003Z,1010.8
2023-02-27T01:47:01.530Z,1010.8
2023-02-27T01:48:02.918Z,1010.8
2023-02-27T01:49:04.338Z,1010.8
2023-02-27T01:50:05.762Z,1010.8
2023-02-27T01:51:06.930Z,1010.8
2023-02-27T01:52:08.068Z,1010.8
2023-02-27T01:53:09.202Z,1010.9
2023-02-27T01:54:10.626Z,1010.8
2023-02-27T01:55:11.770Z,1010.9
2023-02-27T01:56:13.180Z,1010.9
2023-02-27T01:57:14.374Z,1010.9
2023-02-27T01:58:15.784Z,1010.9
2023-02-27T01:59:17.195Z,1010.9
2023-02-27T02:00:18.611Z,1010.9
2023-02-27T02:01:20.148Z,1010.9
2023-02-27T02:02:21.838Z,1010.9
2023-02-27T02:03:23.240Z,1010.9
2023-02-27T02:04:24.665Z,1010.9
2023-02-27T02:05:26.077Z,1010.9
2023-02-27T02:06:27.492Z,1010.9
2023-02-27T02:07:28.906Z,1010.9
2023-02-27T02:08:30.325Z,1010.9
2023-02-27T02:09:31.742Z,1010.9
2023-02-27T02:10:33.156Z,1010.9
2023-02-27T02:11:34.575Z,1010.8
2023-02-27T02:12:35.991Z,1010.9
2023-02-27T02:13:37.409Z,1010.8
2023-02-27T02:14:38.824Z,1010.8
2023-02-27T02:15:40.243Z,1010.8
2023-02-27T02:16:41.711Z,1010.8
2023-02-27T02:17:43.177Z,1010.8
2023-02-27T02:18:44.568Z,1010.8
2023-02-27T02:19:45.985Z,1010.8
2023-02-27T02:20:47.400Z,1010.8
2023-02-27T02:21:48.818Z,1010.8
2023-02-27T02:22:50.235Z,1010.8
2023-02-27T02:23:51.659Z,1010.8
2023-02-27T02:24:53.130Z,1010.8
2023-02-27T02:25:54.551Z,1010.8
2023-02-27T02:26:55.685Z,1010.8
2023-02-27T02:27:57.105Z,1010.8
2023-02-27T02:28:58.525Z,1010.8
2023-02-27T02:29:59.940Z,1010.8
2023-02-27T02:31:01.547Z,1010.7
2023-02-27T02:32:03.582Z,1010.8
2023-02-27T02:33:05.301Z,1010.8
2023-02-27T02:34:06.687Z,1010.8
2023-02-27T02:35:08.297Z,1010.8
2023-02-27T02:36:09.716Z,1010.8
2023-02-27T02:37:11.132Z,1010.8
2023-02-27T02:38:12.548Z,1010.8
2023-02-27T02:39:13.963Z,1010.8
2023-02-27T02:40:15.905Z,1010.8
2023-02-27T02:41:17.318Z,1010.8
2023-02-27T02:42:18.736Z,1010.8
2023-02-27T02:43:20.168Z,1010.8
2023-02-27T02:44:21.576Z,1010.7
2023-02-27T02:45:22.991Z,1010.8
2023-02-27T02:46:24.448Z,1010.7
2023-02-27T02:48:26.509Z,1010.7
2023-02-27T02:49:27.915Z,1010.8
2023-02-27T02:50:29.322Z,1010.8
2023-02-27T02:51:30.736Z,1010.8
2023-02-27T02:52:32.151Z,1010.8
2023-02-27T02:53:37.873Z,1010.9
2023-02-27T02:54:38.981Z,1010.9
2023-02-27T02:55:40.405Z,1010.9
2023-02-27T02:56:41.822Z,1010.9
2023-02-27T02:57:43.246Z,1010.9
2023-02-27T02:58:44.686Z,1010.9
2023-02-27T02:59:46.102Z,1010.9
2023-02-27T03:00:47.521Z,1010.9
2023-02-27T03:01:49.104Z,1010.9
2023-02-27T03:02:50.577Z,1010.9
2023-02-27T03:03:52.019Z,1010.9
2023-02-27T03:04:53.413Z,1010.9
2023-02-27T03:05:54.851Z,1010.9
2023-02-27T03:06:56.250Z,1010.9
2023-02-27T03:07:57.674Z,1010.9
2023-02-27T03:08:59.084Z,1010.9
2023-02-27T03:10:00.504Z,1010.9
2023-02-27T03:11:01.924Z,1011
2023-02-27T03:12:03.331Z,1011
2023-02-27T03:13:04.749Z,1011
2023-02-27T03:14:06.165Z,1011
2023-02-27T03:15:07.602Z,1011
2023-02-27T03:16:09.158Z,1011
2023-02-27T03:17:10.712Z,1011
2023-02-27T03:18:12.125Z,1011
2023-02-27T03:19:13.566Z,1011
2023-02-27T03:20:15.053Z,1011
2023-02-27T03:21:16.463Z,1011
2023-02-27T03:22:17.880Z,1011
2023-02-27T03:23:19.296Z,1011.1
2023-02-27T03:24:20.725Z,1011.1
2023-02-27T03:25:22.129Z,1011.1
2023-02-27T03:26:23.548Z,1011.1
2023-02-27T03:27:24.968Z,1011.1
2023-02-27T03:28:26.382Z,1011.1
2023-02-27T03:29:27.799Z,1011.1
2023-02-27T03:30:29.341Z,1011.1
2023-02-27T03:31:31.558Z,1011.1
2023-02-27T03:32:33.102Z,1011.1
2023-02-27T03:33:34.613Z,1011.1
2023-02-27T03:34:36.065Z,1011.2
2023-02-27T03:35:37.448Z,1011.2
2023-02-27T03:36:38.868Z,1011.2
2023-02-27T03:37:40.289Z,1011.2
2023-02-27T03:38:41.701Z,1011.2
2023-02-27T03:39:43.136Z,1011.2
2023-02-27T03:40:44.534Z,1011.2
2023-02-27T03:41:46.333Z,1011.3
2023-02-27T03:42:47.752Z,1011.3
2023-02-27T03:43:49.165Z,1011.3
2023-02-27T03:44:52.885Z,1011.3
2023-02-27T03:45:54.301Z,1011.2
2023-02-27T03:46:55.716Z,1011.2
2023-02-27T03:47:57.131Z,1011.3
2023-02-27T03:48:58.546Z,1011.3
2023-02-27T03:49:59.996Z,1011.2
2023-02-27T03:51:01.383Z,1011.2
2023-02-27T03:52:02.800Z,1011.2
2023-02-27T03:53:04.214Z,1011.2
2023-02-27T03:54:05.638Z,1011.2
2023-02-27T03:55:07.177Z,1011.2
2023-02-27T03:56:08.595Z,1011.2
2023-02-27T03:57:10.011Z,1011.1
2023-02-27T03:58:11.441Z,1011.1
2023-02-27T03:59:12.843Z,1011.1
2023-02-27T04:00:14.265Z,1011.1
2023-02-27T04:01:15.718Z,1011.1
2023-02-27T04:02:17.127Z,1011.1
2023-02-27T04:03:18.518Z,1011.1
2023-02-27T04:04:19.936Z,1011.1
2023-02-27T04:05:21.380Z,1011.1
2023-02-27T04:06:22.768Z,1011.1
2023-02-27T04:07:24.232Z,1011.2
2023-02-27T04:08:25.911Z,1011.2
2023-02-27T04:09:27.325Z,1011.1
2023-02-27T04:10:28.468Z,1011.1
2023-02-27T04:11:30.152Z,1011.1
2023-02-27T04:12:31.549Z,1011.2
2023-02-27T04:13:32.973Z,1011.2
2023-02-27T04:14:34.385Z,1011.2
2023-02-27T04:15:35.806Z,1011.2
2023-02-27T04:16:37.219Z,1011.2
2023-02-27T04:17:38.639Z,1011.2
2023-02-27T04:18:40.057Z,1011.2
2023-02-27T04:19:41.474Z,1011.2
2023-02-27T04:20:42.918Z,1011.3
2023-02-27T04:21:44.318Z,1011.2
2023-02-27T04:22:45.722Z,1011.3
2023-02-27T04:23:47.139Z,1011.3
2023-02-27T04:24:48.573Z,1011.3
2023-02-27T04:25:49.971Z,1011.3
2023-02-27T04:26:51.391Z,1011.3
2023-02-27T04:27:52.818Z,1011.3
2023-02-27T04:28:54.222Z,1011.3
2023-02-27T04:29:55.640Z,1011.3
2023-02-27T04:30:57.259Z,1011.3
2023-02-27T04:31:59.235Z,1011.3
2023-02-27T04:33:00.908Z,1011.3
2023-02-27T04:34:02.322Z,1011.3
2023-02-27T04:35:03.742Z,1011.3
2023-02-27T04:36:05.195Z,1011.3
2023-02-27T04:37:06.578Z,1011.3
2023-02-27T04:38:07.995Z,1011.3
2023-02-27T04:39:09.415Z,1011.3
2023-02-27T04:40:10.831Z,1011.3
2023-02-27T04:41:12.246Z,1011.3
2023-02-27T04:42:13.662Z,1011.4
2023-02-27T04:43:15.085Z,1011.4
2023-02-27T04:44:16.516Z,1011.4
2023-02-27T04:45:17.913Z,1011.4
2023-02-27T04:46:19.335Z,1011.4
2023-02-27T04:47:20.749Z,1011.4
2023-02-27T04:48:22.166Z,1011.4
2023-02-27T04:49:23.588Z,1011.4
2023-02-27T04:50:25.001Z,1011.4
2023-02-27T04:51:27.278Z,1011.4
2023-02-27T04:52:29.308Z,1011.4
2023-02-27T04:53:30.721Z,1011.4
2023-02-27T04:54:32.139Z,1011.4
2023-02-27T04:55:33.554Z,1011.4
2023-02-27T04:56:34.984Z,1011.4
2023-02-27T04:57:36.394Z,1011.4
2023-02-27T04:58:37.807Z,1011.4
2023-02-27T04:59:39.237Z,1011.4
2023-02-27T05:00:40.639Z,1011.4
2023-02-27T05:01:42.235Z,1011.4
2023-02-27T05:02:43.668Z,1011.4
2023-02-27T05:03:45.358Z,1011.4
2023-02-27T05:04:46.769Z,1011.4
2023-02-27T05:05:48.189Z,1011.4
2023-02-27T05:06:49.715Z,1011.4
2023-02-27T05:07:51.162Z,1011.4
2023-02-27T05:08:52.576Z,1011.4
2023-02-27T05:09:53.991Z,1011.4
2023-02-27T05:10:55.422Z,1011.4
2023-02-27T05:11:56.823Z,1011.4
2023-02-27T05:12:58.252Z,1011.4
2023-02-27T05:13:59.670Z,1011.4
2023-02-27T05:15:01.096Z,1011.4
2023-02-27T05:16:02.705Z,1011.4
2023-02-27T05:17:04.303Z,1011.4
2023-02-27T05:18:06.033Z,1011.4
2023-02-27T05:19:07.382Z,1011.5
2023-02-27T05:20:08.798Z,1011.5
2023-02-27T05:21:10.235Z,1011.5
2023-02-27T05:22:11.680Z,1011.5
2023-02-27T05:23:12.790Z,1011.5
2023-02-27T05:24:14.234Z,1011.5
2023-02-27T05:25:15.627Z,1011.5
2023-02-27T05:26:16.767Z,1011.5
2023-02-27T05:27:18.183Z,1011.5
2023-02-27T05:28:19.599Z,1011.5
2023-02-27T05:29:20.740Z,1011.5
2023-02-27T05:30:21.878Z,1011.5
2023-02-27T05:31:23.052Z,1011.5
2023-02-27T05:32:24.748Z,1011.5
2023-02-27T05:33:25.892Z,1011.5
2023-02-27T05:34:27.301Z,1011.5
2023-02-27T05:35:29.746Z,1011.5
2023-02-27T05:36:31.202Z,1011.6
2023-02-27T05:37:32.350Z,1011.6
2023-02-27T05:38:33.758Z,1011.6
2023-02-27T05:39:35.168Z,1011.6
2023-02-27T05:40:36.587Z,1011.6
2023-02-27T05:41:38.003Z,1011.6
2023-02-27T05:42:39.182Z,1011.6
2023-02-27T05:43:40.857Z,1011.6
2023-02-27T05:44:42.048Z,1011.6
2023-02-27T05:45:43.257Z,1011.6
2023-02-27T05:46:44.418Z,1011.6
2023-02-27T05:47:45.835Z,1011.6
2023-02-27T05:48:47.246Z,1011.7
2023-02-27T05:49:48.397Z,1011.6
2023-02-27T05:50:49.528Z,1011.6
2023-02-27T05:51:50.400Z,1011.7
2023-02-27T05:52:51.822Z,1011.7
2023-02-27T05:53:53.217Z,1011.7
2023-02-27T05:54:54.639Z,1011.7
2023-02-27T05:55:56.052Z,1011.7
2023-02-27T05:56:57.208Z,1011.7
2023-02-27T05:57:58.610Z,1011.7
2023-02-27T05:59:00.031Z,1011.7
2023-02-27T06:00:01.448Z,1011.7
2023-02-27T06:01:02.866Z,1011.7
2023-02-27T06:02:04.338Z,1011.7
2023-02-27T06:03:05.861Z,1011.7
2023-02-27T06:04:07.315Z,1011.7
2023-02-27T06:05:08.842Z,1011.7
2023-02-27T06:06:10.261Z,1011.7
2023-02-27T06:07:11.112Z,1011.7
2023-02-27T06:08:12.570Z,1011.7
2023-02-27T06:09:14.072Z,1011.8
2023-02-27T06:10:15.255Z,1011.8
2023-02-27T06:11:16.682Z,1011.8
2023-02-27T06:12:18.084Z,1011.8
2023-02-27T06:13:19.509Z,1011.9
2023-02-27T06:14:20.934Z,1011.9
2023-02-27T06:15:22.361Z,1011.9
2023-02-27T06:16:23.896Z,1011.9
2023-02-27T06:17:25.231Z,1011.9
2023-02-27T06:18:26.339Z,1012
2023-02-27T06:19:27.754Z,1012
2023-02-27T06:20:29.225Z,1012
2023-02-27T06:21:30.615Z,1012
2023-02-27T06:22:32.012Z,1012.1
2023-02-27T06:23:33.469Z,1012.1
2023-02-27T06:24:34.860Z,1012.1
2023-02-27T06:25:36.289Z,1012.1
2023-02-27T06:26:37.690Z,1012.1
2023-02-27T06:27:38.319Z,1012.1
2023-02-27T06:28:39.738Z,1012.2
2023-02-27T06:29:41.150Z,1012.2
2023-02-27T06:30:43.937Z,1012.2
2023-02-27T06:31:47.721Z,1012.2
2023-02-27T06:32:49.049Z,1012.2
2023-02-27T06:33:50.490Z,1012.2
2023-02-27T06:34:51.613Z,1012.2
2023-02-27T06:35:53.200Z,1012.3
2023-02-27T06:36:54.502Z,1012.3
2023-02-27T06:37:55.918Z,1012.3
2023-02-27T06:38:57.379Z,1012.3
2023-02-27T06:39:58.779Z,1012.3
2023-02-27T06:41:00.187Z,1012.3
2023-02-27T06:42:01.322Z,1012.3
2023-02-27T06:43:02.737Z,1012.3
2023-02-27T06:44:03.906Z,1012.3
2023-02-27T06:45:05.453Z,1012.4
2023-02-27T06:46:06.961Z,1012.4
2023-02-27T06:47:08.105Z,1012.4
2023-02-27T06:48:09.279Z,1012.4
2023-02-27T06:49:10.376Z,1012.4
2023-02-27T06:50:11.306Z,1012.4
2023-02-27T06:51:12.767Z,1012.4
2023-02-27T06:52:14.196Z,1012.4
2023-02-27T06:53:15.341Z,1012.4
2023-02-27T06:54:16.767Z,1012.4
2023-02-27T06:55:18.170Z,1012.4
2023-02-27T06:56:19.588Z,1012.4
2023-02-27T06:57:21.078Z,1012.4
2023-02-27T06:58:22.492Z,1012.4
2023-02-27T06:59:23.942Z,1012.4
2023-02-27T07:00:25.358Z,1012.4
2023-02-27T07:01:26.965Z,1012.4
2023-02-27T07:02:28.467Z,1012.4
2023-02-27T07:03:29.889Z,1012.4
2023-02-27T07:04:31.355Z,1012.5
2023-02-27T07:05:32.558Z,1012.5
2023-02-27T07:07:37.646Z,1012.5
2023-02-27T07:09:07.284Z,1012.5
2023-02-27T07:10:08.734Z,1012.5
2023-02-27T07:11:10.121Z,1012.5
2023-02-27T07:12:11.035Z,1012.5
2023-02-27T07:13:16.861Z,1012.5
2023-02-27T07:14:20.774Z,1012.5
2023-02-27T07:15:22.190Z,1012.5
2023-02-27T07:16:23.614Z,1012.5
2023-02-27T07:17:25.056Z,1012.5
2023-02-27T07:18:26.446Z,1012.5
2023-02-27T07:19:27.863Z,1012.5
2023-02-27T07:20:29.174Z,1012.6
2023-02-27T07:21:30.142Z,1012.6
2023-02-27T07:22:31.595Z,1012.6
2023-02-27T07:23:32.696Z,1012.6
2023-02-27T07:24:33.867Z,1012.6
2023-02-27T07:25:35.076Z,1012.6
2023-02-27T07:26:36.197Z,1012.7
2023-02-27T07:27:37.331Z,1012.7
2023-02-27T07:28:38.942Z,1012.7
2023-02-27T07:29:40.439Z,1012.7
2023-02-27T07:30:41.855Z,1012.8
2023-02-27T07:31:43.178Z,1012.8
2023-02-27T07:32:44.719Z,1012.8
2023-02-27T07:33:46.121Z,1012.8
2023-02-27T07:34:47.539Z,1012.7
2023-02-27T07:35:48.871Z,1012.8
2023-02-27T07:36:50.083Z,1012.8
2023-02-27T07:37:51.504Z,1012.8
2023-02-27T07:38:52.676Z,1012.8
2023-02-27T07:39:54.075Z,1012.8
2023-02-27T07:40:55.258Z,1012.9
2023-02-27T07:41:56.752Z,1012.9
2023-02-27T07:42:58.165Z,1012.8
2023-02-27T07:43:59.596Z,1012.9
2023-02-27T07:45:01.069Z,1012.9
2023-02-27T07:46:03.059Z,1012.9
2023-02-27T07:47:04.532Z,1012.9
2023-02-27T07:48:05.947Z,1012.9
2023-02-27T07:49:07.359Z,1013
2023-02-27T07:50:08.778Z,1013
2023-02-27T07:51:09.921Z,1013
2023-02-27T07:52:11.331Z,1013
2023-02-27T07:53:12.756Z,1013
2023-02-27T07:54:13.902Z,1013
2023-02-27T07:55:15.036Z,1013
2023-02-27T07:56:16.471Z,1013
2023-02-27T07:57:17.371Z,1013
2023-02-27T07:58:18.509Z,1013
2023-02-27T07:59:19.928Z,1013
2023-02-27T08:00:21.341Z,1013
2023-02-27T08:01:22.504Z,1013
2023-02-27T08:02:23.823Z,1012.9
2023-02-27T08:03:25.208Z,1012.9
2023-02-27T08:04:26.668Z,1012.9
2023-02-27T08:05:27.945Z,1013
2023-02-27T08:06:30.196Z,1013
2023-02-27T08:07:31.507Z,1013
2023-02-27T08:08:32.927Z,1013
2023-02-27T08:09:34.064Z,1013
2023-02-27T08:10:35.485Z,1013
2023-02-27T08:11:36.693Z,1013
2023-02-27T08:12:38.073Z,1013.1
2023-02-27T08:14:08.951Z,1013.1
2023-02-27T08:15:10.373Z,1013.1
2023-02-27T08:16:11.573Z,1013
2023-02-27T08:17:12.841Z,1013
2023-02-27T08:18:14.262Z,1013
2023-02-27T08:19:15.691Z,1013
2023-02-27T08:20:16.863Z,1013
2023-02-27T08:21:18.278Z,1013
2023-02-27T08:22:19.411Z,1013
2023-02-27T08:23:20.828Z,1013
2023-02-27T08:24:21.966Z,1013
2023-02-27T08:25:23.383Z,1013
2023-02-27T08:26:24.806Z,1013.1
2023-02-27T08:27:26.237Z,1013.1
2023-02-27T08:28:27.639Z,1013.1
2023-02-27T08:29:29.041Z,1013.1
2023-02-27T08:30:30.645Z,1013.1
2023-02-27T08:31:32.636Z,1013.1
2023-02-27T08:32:34.395Z,1013.1
2023-02-27T08:33:35.518Z,1013.1
2023-02-27T08:34:36.922Z,1013.1
2023-02-27T08:35:38.111Z,1013.1
2023-02-27T08:36:39.696Z,1013.1
2023-02-27T08:37:40.845Z,1013.1
2023-02-27T08:38:42.249Z,1013.1
2023-02-27T08:39:43.666Z,1013.1
2023-02-27T08:40:45.080Z,1013.1
2023-02-27T08:41:46.496Z,1013.1
2023-02-27T08:42:47.938Z,1013.1
2023-02-27T08:43:49.058Z,1013.1
2023-02-27T08:44:50.475Z,1013.1
2023-02-27T08:45:51.769Z,1013.1
2023-02-27T08:46:53.174Z,1013.1
2023-02-27T08:47:54.587Z,1013.1
2023-02-27T08:48:55.779Z,1013.1
2023-02-27T08:49:57.185Z,1013.1
2023-02-27T08:50:58.599Z,1013.1
2023-02-27T08:51:59.739Z,1013.1
2023-02-27T08:53:00.914Z,1013.1
2023-02-27T08:54:02.336Z,1013.1
2023-02-27T08:55:03.759Z,1013.1
2023-02-27T08:56:05.329Z,1013.1
2023-02-27T08:57:06.463Z,1013.1
2023-02-27T08:58:07.919Z,1013
2023-02-27T08:59:09.303Z,1013
2023-02-27T09:00:10.938Z,1013
2023-02-27T09:01:12.229Z,1013
2023-02-27T09:02:13.575Z,1013
2023-02-27T09:03:14.712Z,1013
2023-02-27T09:04:16.130Z,1013
2023-02-27T09:05:17.548Z,1013
2023-02-27T09:06:18.688Z,1013
2023-02-27T09:07:19.862Z,1013
2023-02-27T09:08:21.000Z,1013
2023-02-27T09:09:22.415Z,1013
2023-02-27T09:10:23.975Z,1013
2023-02-27T09:11:26.212Z,1013
2023-02-27T09:12:28.279Z,1013
2023-02-27T09:13:29.523Z,1013
2023-02-27T09:14:30.934Z,1013
2023-02-27T09:15:32.133Z,1013
2023-02-27T09:16:33.562Z,1013
2023-02-27T09:17:34.860Z,1013
2023-02-27T09:18:36.278Z,1013
2023-02-27T09:19:37.689Z,1013
2023-02-27T09:20:39.105Z,1013
2023-02-27T09:21:40.518Z,1013
2023-02-27T09:22:41.659Z,1013
2023-02-27T09:23:43.074Z,1013
2023-02-27T09:24:44.490Z,1013
2023-02-27T09:25:45.906Z,1013
2023-02-27T09:26:48.189Z,1013.1
2023-02-27T09:27:50.193Z,1013.1
2023-02-27T09:28:51.365Z,1013.1
2023-02-27T09:29:52.861Z,1013.1
2023-02-27T09:30:54.285Z,1013.1
2023-02-27T09:31:55.967Z,1013.1
2023-02-27T09:32:57.017Z,1013.1
2023-02-27T09:33:58.423Z,1013.1
2023-02-27T09:34:59.840Z,1013.1
2023-02-27T09:36:01.281Z,1013.1
2023-02-27T09:37:02.477Z,1013.1
2023-02-27T09:38:03.881Z,1013.1
2023-02-27T09:39:05.301Z,1013.1
2023-02-27T09:40:06.726Z,1013.2
2023-02-27T09:41:08.133Z,1013.2
2023-02-27T09:42:09.580Z,1013.2
2023-02-27T09:43:10.792Z,1013.2
2023-02-27T09:44:12.061Z,1013.2
2023-02-27T09:45:13.249Z,1013.2
2023-02-27T09:46:14.538Z,1013.2
2023-02-27T09:47:16.585Z,1013.2
2023-02-27T09:48:18.123Z,1013.2
2023-02-27T09:49:19.503Z,1013.2
2023-02-27T09:50:20.737Z,1013.2
2023-02-27T09:51:22.019Z,1013.2
2023-02-27T09:52:23.440Z,1013.2
2023-02-27T09:53:24.848Z,1013.1
2023-02-27T09:54:25.988Z,1013.1
2023-02-27T09:55:27.405Z,1013.1
2023-02-27T09:56:29.597Z,1013.1
2023-02-27T09:57:30.954Z,1013.1
2023-02-27T09:58:32.367Z,1013.1
2023-02-27T09:59:33.811Z,1013.1
2023-02-27T10:00:34.924Z,1013.1
2023-02-27T10:01:36.341Z,1013.1
2023-02-27T10:02:37.773Z,1013.1
2023-02-27T10:03:38.959Z,1013.1
2023-02-27T10:04:40.220Z,1013.1
2023-02-27T10:05:41.357Z,1013.1
2023-02-27T10:06:42.773Z,1013.1
2023-02-27T10:07:44.186Z,1013.1
2023-02-27T10:08:45.605Z,1013.1
2023-02-27T10:09:46.813Z,1013.1
2023-02-27T10:10:48.227Z,1013.1
2023-02-27T10:11:49.637Z,1013.1
2023-02-27T10:12:50.778Z,1013.1
2023-02-27T10:13:52.202Z,1013.1
2023-02-27T10:14:53.370Z,1013.1
2023-02-27T10:15:54.543Z,1013.1
2023-02-27T10:16:56.131Z,1013.1
2023-02-27T10:17:57.710Z,1013.1
2023-02-27T10:18:58.967Z,1013.1
2023-02-27T10:20:00.381Z,1013.1
2023-02-27T10:21:01.790Z,1013.1
2023-02-27T10:22:03.214Z,1013.1
2023-02-27T10:23:04.343Z,1013.1
2023-02-27T10:24:08.109Z,1013.1
2023-02-27T10:25:31.878Z,1013.1
2023-02-27T10:26:33.552Z,1013.1
2023-02-27T10:27:34.980Z,1013.1
2023-02-27T10:28:36.384Z,1013.1
2023-02-27T10:29:37.556Z,1013.1
2023-02-27T10:30:38.651Z,1013.1
2023-02-27T10:31:40.108Z,1013.1
2023-02-27T10:32:41.524Z,1013.1
2023-02-27T10:33:42.415Z,1013.1
2023-02-27T10:34:43.836Z,1013.1
2023-02-27T10:35:45.057Z,1013.1
2023-02-27T10:36:46.493Z,1013.1
2023-02-27T10:37:47.908Z,1013.1
2023-02-27T10:38:49.446Z,1013.1
2023-02-27T10:39:50.823Z,1013.1
2023-02-27T10:40:52.242Z,1013.1
2023-02-27T10:41:53.417Z,1013.1
2023-02-27T10:42:54.842Z,1013.1
2023-02-27T10:43:56.248Z,1013.1
2023-02-27T10:44:57.384Z,1013.1
2023-02-27T10:45:58.845Z,1013.2
2023-02-27T10:47:00.274Z,1013.1
2023-02-27T10:48:01.684Z,1013.1
2023-02-27T10:49:03.299Z,1013.1
2023-02-27T10:50:04.724Z,1013.1
2023-02-27T10:51:06.994Z,1013.1
2023-02-27T10:52:08.130Z,1013.1
2023-02-27T10:53:09.543Z,1013.1
2023-02-27T10:54:10.702Z,1013.1
2023-02-27T10:55:12.111Z,1013.1
2023-02-27T10:56:13.511Z,1013.1
2023-02-27T10:57:14.690Z,1013.1
2023-02-27T10:58:16.106Z,1013.1
2023-02-27T10:59:17.520Z,1013.1
2023-02-27T11:00:18.939Z,1013.1
2023-02-27T11:01:20.479Z,1013.1
2023-02-27T11:02:21.689Z,1013.1
2023-02-27T11:03:23.102Z,1013.1
2023-02-27T11:04:24.603Z,1013.1
2023-02-27T11:05:25.997Z,1013.1
2023-02-27T11:06:27.412Z,1013.1
2023-02-27T11:07:28.826Z,1013.1
2023-02-27T11:08:30.006Z,1013.1
2023-02-27T11:09:31.425Z,1013.1
2023-02-27T11:10:32.852Z,1013.1
2023-02-27T11:11:34.277Z,1013.1
2023-02-27T11:12:35.667Z,1013.1
2023-02-27T11:13:36.950Z,1013.2
2023-02-27T11:14:38.140Z,1013.1
2023-02-27T11:15:39.596Z,1013.1
2023-02-27T11:16:41.014Z,1013.1
2023-02-27T11:17:41.918Z,1013.1
2023-02-27T11:18:43.368Z,1013.1
2023-02-27T11:19:44.759Z,1013.1
2023-02-27T11:20:46.189Z,1013.1
2023-02-27T11:21:47.315Z,1013.1
2023-02-27T11:22:48.728Z,1013.1
2023-02-27T11:23:49.907Z,1013.1
2023-02-27T11:24:51.326Z,1013.1
2023-02-27T11:25:52.745Z,1013.1
2023-02-27T11:26:53.965Z,1013.1
2023-02-27T11:27:55.347Z,1013
2023-02-27T11:28:56.762Z,1013.1
2023-02-27T11:29:57.905Z,1013.1
2023-02-27T11:30:59.493Z,1013.1
2023-02-27T11:32:00.721Z,1013.1
2023-02-27T11:33:01.845Z,1013.1
2023-02-27T11:34:03.030Z,1013.1
2023-02-27T11:35:04.448Z,1013.1
2023-02-27T11:36:05.736Z,1013.1
2023-02-27T11:37:06.963Z,1013.1
2023-02-27T11:38:08.387Z,1013.1
2023-02-27T11:39:09.789Z,1013
2023-02-27T11:40:11.212Z,1013
2023-02-27T11:41:12.342Z,1013
2023-02-27T11:42:14.649Z,1013
2023-02-27T11:43:18.222Z,1013
2023-02-27T11:44:51.418Z,1013
2023-02-27T11:46:24.351Z,1013
2023-02-27T11:47:49.782Z,1013
2023-02-27T11:48:50.960Z,1013
2023-02-27T11:49:52.378Z,1013
2023-02-27T11:50:54.216Z,1013
2023-02-27T11:51:55.630Z,1013
2023-02-27T11:52:56.814Z,1013
2023-02-27T11:53:58.243Z,1013
2023-02-27T11:54:59.650Z,1013
2023-02-27T11:56:01.063Z,1013
2023-02-27T11:57:02.480Z,1013
2023-02-27T11:58:03.895Z,1013
2023-02-27T11:59:05.313Z,1013
2023-02-27T12:00:06.732Z,1013
2023-02-27T12:01:08.206Z,1013
2023-02-27T12:02:09.626Z,1013
2023-02-27T12:03:11.218Z,1012.9
2023-02-27T12:04:12.911Z,1012.9
2023-02-27T12:05:14.061Z,1012.9
2023-02-27T12:06:14.918Z,1012.9
2023-02-27T12:07:16.053Z,1012.9
2023-02-27T12:08:17.192Z,1012.9
2023-02-27T12:09:18.788Z,1012.9
2023-02-27T12:10:20.201Z,1012.9
2023-02-27T12:11:21.614Z,1012.9
2023-02-27T12:12:23.042Z,1012.9
2023-02-27T12:13:24.451Z,1012.9
2023-02-27T12:14:26.020Z,1012.9
2023-02-27T12:15:27.405Z,1012.9
2023-02-27T12:16:33.001Z,1012.9
2023-02-27T12:17:35.008Z,1012.9
2023-02-27T12:18:36.171Z,1012.9
2023-02-27T12:19:37.567Z,1012.8
2023-02-27T12:20:38.709Z,1012.8
2023-02-27T12:21:40.113Z,1012.8
2023-02-27T12:22:41.533Z,1012.8
2023-02-27T12:23:42.946Z,1012.8
2023-02-27T12:24:44.361Z,1012.8
2023-02-27T12:25:45.783Z,1012.8
2023-02-27T12:26:46.986Z,1012.8
2023-02-27T12:27:48.147Z,1012.8
2023-02-27T12:28:49.564Z,1012.8
2023-02-27T12:29:50.768Z,1012.8
2023-02-27T12:30:52.246Z,1012.8
2023-02-27T12:31:53.827Z,1012.8
2023-02-27T12:32:55.302Z,1012.8
2023-02-27T12:33:56.528Z,1012.8
2023-02-27T12:34:57.626Z,1012.8
2023-02-27T12:35:58.968Z,1012.8
2023-02-27T12:37:00.287Z,1012.7
2023-02-27T12:38:01.708Z,1012.8
2023-02-27T12:39:03.114Z,1012.8
2023-02-27T12:40:04.533Z,1012.7
2023-02-27T12:41:05.665Z,1012.8
2023-02-27T12:42:07.082Z,1012.8
2023-02-27T12:43:11.180Z,1012.7
2023-02-27T12:44:12.608Z,1012.7
2023-02-27T12:45:13.518Z,1012.8
2023-02-27T12:46:14.490Z,1012.8
2023-02-27T12:47:15.890Z,1012.8
2023-02-27T12:48:17.308Z,1012.8
2023-02-27T12:49:18.754Z,1012.8
2023-02-27T12:50:20.140Z,1012.8
2023-02-27T12:51:21.629Z,1012.7
2023-02-27T12:52:23.409Z,1012.7
2023-02-27T12:53:24.824Z,1012.8
2023-02-27T12:54:26.237Z,1012.7
2023-02-27T12:55:27.398Z,1012.7
2023-02-27T12:56:28.516Z,1012.7
2023-02-27T12:57:29.934Z,1012.8
2023-02-27T12:58:31.346Z,1012.8
2023-02-27T12:59:32.775Z,1012.7